createdAt,value
2022-10-24T00:02:19.278Z,25.57
2022-10-24T00:04:46.444Z,25.87
2022-10-24T00:07:13.381Z,25.03
2022-10-24T00:09:40.299Z,23.70
2022-10-24T00:12:08.372Z,23.50
2022-10-24T00:14:36.754Z,22.73
2022-10-24T00:17:12.940Z,21.97
2022-10-24T00:19:40.738Z,21.03
2022-10-24T00:22:24.416Z,20.30
2022-10-24T00:25:23.581Z,19.37
2022-10-24T00:27:51.041Z,18.97
2022-10-24T00:30:21.599Z,19.57
2022-10-24T00:33:03.873Z,19.50
2022-10-24T00:35:31.192Z,18.20
2022-10-24T00:38:01.355Z,19.07
2022-10-24T00:40:47.071Z,19.20
2022-10-24T00:43:28.112Z,19.20
2022-10-24T00:46:02.770Z,19.13
2022-10-24T00:48:50.178Z,19.10
2022-10-24T00:51:27.227Z,20.30
2022-10-24T00:53:58.832Z,19.37
2022-10-24T00:56:33.832Z,19.10
2022-10-24T00:59:09.294Z,19.33
2022-10-24T01:08:36.405Z,20.23
2022-10-24T01:11:51.552Z,19.97
2022-10-24T01:19:00.562Z,21.60
2022-10-24T01:22:11.103Z,20.87
2022-10-24T01:25:23.586Z,20.77
2022-10-24T01:29:04.773Z,21.10
2022-10-24T01:33:17.389Z,20.47
2022-10-24T01:35:53.780Z,22.40
2022-10-24T01:38:53.414Z,21.70
2022-10-24T01:41:31.169Z,21.33
2022-10-24T01:44:36.549Z,20.63
2022-10-24T01:47:36.255Z,20.33
2022-10-24T01:50:33.669Z,21.30
2022-10-24T01:53:05.072Z,21.83
2022-10-24T01:55:36.481Z,21.60
2022-10-24T01:58:03.470Z,22.87
2022-10-24T02:00:30.987Z,22.80
2022-10-24T02:03:04.867Z,22.73
2022-10-24T02:05:43.150Z,22.40
2022-10-24T02:08:15.183Z,21.73
2022-10-24T02:10:50.616Z,22.30
2022-10-24T02:28:12.654Z,22.37
2022-10-24T02:49:56.534Z,22.17
2022-10-24T02:52:24.283Z,22.33
2022-10-24T02:55:25.036Z,22.53
2022-10-24T02:58:32.801Z,23.27
2022-10-24T03:01:18.335Z,22.63
2022-10-24T03:03:45.704Z,22.97
2022-10-24T03:06:25.214Z,22.00
2022-10-24T03:09:50.662Z,22.93
2022-10-24T03:15:05.307Z,24.93
2022-10-24T03:17:35.310Z,22.90
2022-10-24T03:20:02.279Z,23.23
2022-10-24T03:22:30.752Z,24.87
2022-10-24T03:25:01.793Z,23.57
2022-10-24T03:27:28.969Z,23.40
2022-10-24T03:29:58.881Z,23.20
2022-10-24T03:34:53.807Z,24.43
2022-10-24T03:37:20.820Z,23.77
2022-10-24T03:39:48.385Z,23.77
2022-10-24T03:42:15.428Z,24.20
2022-10-24T03:44:42.403Z,23.63
2022-10-24T03:47:09.721Z,25.87
2022-10-24T03:49:36.706Z,25.27
2022-10-24T03:52:04.097Z,25.47
2022-10-24T03:54:31.589Z,26.57
2022-10-24T03:56:58.476Z,24.63
2022-10-24T03:59:25.459Z,25.40
2022-10-24T04:01:52.742Z,25.43
2022-10-24T04:04:19.746Z,25.10
2022-10-24T04:06:46.935Z,24.23
2022-10-24T04:09:17.149Z,23.77
2022-10-24T04:11:53.669Z,24.20
2022-10-24T04:14:26.513Z,22.20
2022-10-24T04:20:04.059Z,22.50
2022-10-24T04:22:52.132Z,24.23
2022-10-24T04:25:22.328Z,23.93
2022-10-24T04:28:01.894Z,22.57
2022-10-24T04:30:49.970Z,23.37
2022-10-24T04:33:16.965Z,23.37
2022-10-24T04:35:48.293Z,22.77
2022-10-24T04:38:33.597Z,22.93
2022-10-24T04:41:07.333Z,22.37
2022-10-24T04:43:49.247Z,22.67
2022-10-24T04:46:16.134Z,22.90
2022-10-24T04:48:42.981Z,22.97
2022-10-24T04:51:18.672Z,22.90
2022-10-24T05:18:26.877Z,19.83
2022-10-24T05:20:57.429Z,20.17
2022-10-24T05:23:24.490Z,21.33
2022-10-24T05:25:51.523Z,20.37
2022-10-24T05:28:18.583Z,20.63
2022-10-24T05:30:45.879Z,21.57
2022-10-24T05:33:13.366Z,21.33
2022-10-24T05:35:41.747Z,20.83
2022-10-24T05:38:09.461Z,22.17
2022-10-24T05:40:36.322Z,21.97
2022-10-24T05:43:03.853Z,22.80
2022-10-24T05:45:30.689Z,21.83
2022-10-24T05:47:58.311Z,23.33
2022-10-24T05:50:27.070Z,23.00
2022-10-24T05:52:54.237Z,23.03
2022-10-24T05:55:21.281Z,22.97
2022-10-24T05:57:48.485Z,23.43
2022-10-24T06:00:16.839Z,23.13
2022-10-24T06:02:44.237Z,24.30
2022-10-24T06:05:13.975Z,23.93
2022-10-24T06:07:42.253Z,22.97
2022-10-24T06:10:18.619Z,21.73
2022-10-24T06:12:45.715Z,23.40
2022-10-24T06:15:13.798Z,31.07
2022-10-24T06:17:40.828Z,23.40
2022-10-24T06:20:08.309Z,23.13
2022-10-24T06:22:35.227Z,22.50
2022-10-24T06:25:02.046Z,22.93
2022-10-24T06:27:29.118Z,22.90
2022-10-24T06:29:55.975Z,21.97
2022-10-24T06:32:23.105Z,21.97
2022-10-24T06:34:50.822Z,22.93
2022-10-24T06:37:17.850Z,22.23
2022-10-24T06:39:44.717Z,22.93
2022-10-24T06:42:11.548Z,22.27
2022-10-24T06:44:38.716Z,22.90
2022-10-24T06:47:06.288Z,22.20
2022-10-24T06:49:33.443Z,22.87
2022-10-24T06:52:00.323Z,22.43
2022-10-24T06:54:30.101Z,22.83
2022-10-24T06:56:58.171Z,21.87
2022-10-24T06:59:28.049Z,22.77
2022-10-24T07:01:55.554Z,21.60
2022-10-24T07:04:22.726Z,21.70
2022-10-24T07:06:49.508Z,20.73
2022-10-24T07:09:17.228Z,20.97
2022-10-24T07:11:45.166Z,22.10
2022-10-24T07:14:12.554Z,21.00
2022-10-24T07:16:49.191Z,22.03
2022-10-24T07:19:16.020Z,20.90
2022-10-24T07:21:43.084Z,20.50
2022-10-24T07:24:12.850Z,20.90
2022-10-24T07:26:39.876Z,20.50
2022-10-24T07:29:06.777Z,19.70
2022-10-24T07:31:35.944Z,19.70
2022-10-24T07:34:07.314Z,20.03
2022-10-24T07:36:34.693Z,18.93
2022-10-24T07:39:02.036Z,19.57
2022-10-24T07:41:30.666Z,19.60
2022-10-24T07:43:59.361Z,19.23
2022-10-24T07:46:27.340Z,18.53
2022-10-24T07:48:54.586Z,18.93
2022-10-24T07:51:22.144Z,19.87
2022-10-24T07:53:49.490Z,19.10
2022-10-24T07:56:28.173Z,19.17
2022-10-24T07:58:56.676Z,19.57
2022-10-24T08:01:32.024Z,19.47
2022-10-24T08:03:58.955Z,19.37
2022-10-24T08:06:30.135Z,19.07
2022-10-24T08:08:57.090Z,18.90
2022-10-24T08:11:28.749Z,19.23
2022-10-24T08:13:59.720Z,19.63
2022-10-24T08:16:38.748Z,19.27
2022-10-24T08:19:08.790Z,20.23
2022-10-24T08:21:43.387Z,19.63
2022-10-24T08:24:10.462Z,18.90
2022-10-24T08:26:40.452Z,18.97
2022-10-24T08:29:11.797Z,18.13
2022-10-24T08:31:39.210Z,18.93
2022-10-24T08:34:06.200Z,18.77
2022-10-24T08:36:35.763Z,18.80
2022-10-24T08:39:06.569Z,18.80
2022-10-24T08:41:39.906Z,18.17
2022-10-24T08:44:22.154Z,17.83
2022-10-24T08:47:04.431Z,16.63
2022-10-24T08:49:44.193Z,18.67
2022-10-24T08:52:53.835Z,17.97
2022-10-24T09:02:39.842Z,17.33
2022-10-24T09:05:18.885Z,17.73
2022-10-24T09:07:48.213Z,16.77
2022-10-24T09:10:38.700Z,17.43
2022-10-24T09:13:14.630Z,17.13
2022-10-24T09:15:44.660Z,15.00
2022-10-24T09:18:25.541Z,17.10
2022-10-24T09:20:55.762Z,15.73
2022-10-24T09:23:32.710Z,16.30
2022-10-24T09:26:47.262Z,15.73
2022-10-24T09:29:23.791Z,15.73
2022-10-24T09:31:50.698Z,14.37
2022-10-24T09:34:20.383Z,15.33
2022-10-24T09:37:23.500Z,14.40
2022-10-24T09:40:36.552Z,14.33
2022-10-24T09:43:23.055Z,13.20
2022-10-24T09:46:06.545Z,12.63
2022-10-24T09:52:07.054Z,13.00
2022-10-24T09:52:20.900Z,13.50
2022-10-24T09:55:03.084Z,13.33
2022-10-24T09:57:39.351Z,13.93
2022-10-24T10:00:16.940Z,13.70
2022-10-24T10:03:06.634Z,13.23
2022-10-24T10:05:54.580Z,12.67
2022-10-24T10:08:35.311Z,13.20
2022-10-24T10:11:08.988Z,12.80
2022-10-24T10:14:11.292Z,12.63
2022-10-24T10:16:41.018Z,12.60
2022-10-24T10:19:39.111Z,12.97
2022-10-24T10:22:32.251Z,12.67
2022-10-24T10:25:00.555Z,12.17
2022-10-24T10:27:34.752Z,12.60
2022-10-24T10:30:15.001Z,11.53
2022-10-24T10:33:41.069Z,11.57
2022-10-24T10:36:58.998Z,11.27
2022-10-24T10:40:07.386Z,11.30
2022-10-24T10:42:49.597Z,11.23
2022-10-24T10:45:19.931Z,11.50
2022-10-24T10:48:01.901Z,11.17
2022-10-24T10:50:34.899Z,11.23
2022-10-24T10:53:31.880Z,10.60
2022-10-24T10:55:58.629Z,10.60
2022-10-24T10:58:33.076Z,11.03
2022-10-24T11:01:10.914Z,10.57
2022-10-24T11:04:00.627Z,10.53
2022-10-24T11:06:46.275Z,10.70
2022-10-24T11:09:49.339Z,9.93
2022-10-24T11:12:36.869Z,9.83
2022-10-24T11:15:07.747Z,9.70
2022-10-24T11:17:37.413Z,9.80
2022-10-24T11:20:16.261Z,10.00
2022-10-24T11:22:49.796Z,10.00
2022-10-24T11:25:31.958Z,9.37
2022-10-24T11:28:12.160Z,9.47
2022-10-24T11:30:48.490Z,9.43
2022-10-24T11:33:20.931Z,9.47
2022-10-24T11:36:13.228Z,9.30
2022-10-24T11:39:35.111Z,8.80
2022-10-24T11:42:17.560Z,9.47
2022-10-24T11:45:10.469Z,9.30
2022-10-24T12:11:31.929Z,8.10
2022-10-24T12:14:19.048Z,7.83
2022-10-24T12:17:23.781Z,7.13
2022-10-24T12:19:52.003Z,7.10
2022-10-24T12:25:51.384Z,7.63
2022-10-24T12:28:26.013Z,7.97
2022-10-24T12:31:29.363Z,7.00
2022-10-24T12:34:23.006Z,6.22
2022-10-24T12:37:09.533Z,6.80
2022-10-24T12:39:47.356Z,7.20
2022-10-24T12:42:37.654Z,6.65
2022-10-24T12:59:32.236Z,7.00
2022-10-24T13:08:52.372Z,7.30
2022-10-24T13:11:54.498Z,6.07
2022-10-24T13:22:58.042Z,6.37
2022-10-24T13:28:43.268Z,6.57
2022-10-24T13:33:54.299Z,6.90
2022-10-24T13:36:42.436Z,6.37
2022-10-24T13:39:28.257Z,6.33
2022-10-24T13:45:52.409Z,6.50
2022-10-24T13:48:21.582Z,5.97
2022-10-24T13:50:54.116Z,6.47
2022-10-24T13:53:57.073Z,6.27
2022-10-24T13:56:27.773Z,6.80
2022-10-24T13:58:54.746Z,6.60
2022-10-24T14:01:44.745Z,6.77
2022-10-24T14:04:12.224Z,6.70
2022-10-24T14:06:39.062Z,7.30
2022-10-24T14:09:10.481Z,6.30
2022-10-24T14:11:42.388Z,6.80
2022-10-24T14:14:30.342Z,6.77
2022-10-24T14:17:33.776Z,6.60
2022-10-24T14:20:19.643Z,6.67
2022-10-24T14:22:46.961Z,6.90
2022-10-24T14:25:32.042Z,6.97
2022-10-24T14:28:01.991Z,7.47
2022-10-24T14:30:34.633Z,7.23
2022-10-24T14:33:24.204Z,7.07
2022-10-24T14:35:55.071Z,7.40
2022-10-24T14:38:25.771Z,7.27
2022-10-24T14:41:06.179Z,6.60
2022-10-24T14:43:34.037Z,7.33
2022-10-24T14:46:09.616Z,7.10
2022-10-24T14:48:38.026Z,7.43
2022-10-24T14:51:22.162Z,7.30
2022-10-24T14:53:50.903Z,7.13
2022-10-24T14:56:25.658Z,7.50
2022-10-24T14:58:55.416Z,7.20
2022-10-24T15:01:23.823Z,7.80
2022-10-24T15:03:55.971Z,7.83
2022-10-24T15:06:59.379Z,7.93
2022-10-24T15:09:26.615Z,7.73
2022-10-24T15:12:01.918Z,7.70
2022-10-24T15:14:35.810Z,7.60
2022-10-24T15:17:17.535Z,7.50
2022-10-24T15:19:46.141Z,9.93
2022-10-24T15:22:35.983Z,8.00
2022-10-24T15:25:18.515Z,7.40
2022-10-24T15:27:46.332Z,8.03
2022-10-24T15:30:20.318Z,7.97
2022-10-24T15:32:48.715Z,8.10
2022-10-24T15:35:16.851Z,8.20
2022-10-24T15:38:02.743Z,8.37
2022-10-24T15:40:35.873Z,8.43
2022-10-24T15:43:03.229Z,8.20
2022-10-24T15:45:30.080Z,8.33
2022-10-24T15:47:56.914Z,8.30
2022-10-24T15:50:24.374Z,7.90
2022-10-24T15:52:54.907Z,8.13
2022-10-24T15:55:25.505Z,8.23
2022-10-24T15:57:53.184Z,8.87
2022-10-24T16:00:22.103Z,8.50
2022-10-24T16:02:50.994Z,8.43
2022-10-24T16:05:24.311Z,9.07
2022-10-24T16:07:54.611Z,8.80
2022-10-24T16:10:22.925Z,9.10
2022-10-24T16:12:50.666Z,8.97
2022-10-24T16:15:29.700Z,8.40
2022-10-24T16:17:56.625Z,8.63
2022-10-24T16:20:23.701Z,9.10
2022-10-24T16:22:51.651Z,9.50
2022-10-24T16:25:25.243Z,10.20
2022-10-24T16:27:52.756Z,9.37
2022-10-24T16:30:22.107Z,8.77
2022-10-24T16:32:49.459Z,9.90
2022-10-24T16:35:21.001Z,9.33
2022-10-24T16:37:48.161Z,9.63
2022-10-24T16:40:15.722Z,9.60
2022-10-24T16:42:43.323Z,9.93
2022-10-24T16:45:11.214Z,9.27
2022-10-24T16:47:41.401Z,10.00
2022-10-24T16:50:12.641Z,10.17
2022-10-24T16:52:39.567Z,10.40
2022-10-24T16:55:06.710Z,10.73
2022-10-24T16:57:33.592Z,10.87
2022-10-24T17:00:06.483Z,10.53
2022-10-24T17:02:36.521Z,10.47
2022-10-24T17:05:03.584Z,10.67
2022-10-24T17:07:33.746Z,11.57
2022-10-24T17:10:00.764Z,10.67
2022-10-24T17:12:27.926Z,10.80
2022-10-24T17:14:54.827Z,10.83
2022-10-24T17:17:21.665Z,11.33
2022-10-24T17:19:52.297Z,10.87
2022-10-24T17:22:19.298Z,11.57
2022-10-24T17:24:46.264Z,10.57
2022-10-24T17:27:15.039Z,10.90
2022-10-24T17:29:43.800Z,10.50
2022-10-24T17:32:13.153Z,12.17
2022-10-24T17:34:42.466Z,11.00
2022-10-24T17:37:22.714Z,11.50
2022-10-24T17:40:05.750Z,11.60
2022-10-24T17:42:33.610Z,11.40
2022-10-24T17:45:00.617Z,11.63
2022-10-24T17:47:27.586Z,11.70
2022-10-24T17:49:54.592Z,11.83
2022-10-24T17:52:23.893Z,11.53
2022-10-24T17:54:51.263Z,12.07
2022-10-24T17:57:18.090Z,12.20
2022-10-24T17:59:45.759Z,12.67
2022-10-24T18:02:14.804Z,11.80
2022-10-24T18:04:43.016Z,12.13
2022-10-24T18:07:10.637Z,12.37
2022-10-24T18:09:40.349Z,12.03
2022-10-24T18:12:07.847Z,12.47
2022-10-24T18:14:39.619Z,12.17
2022-10-24T18:17:06.619Z,12.10
2022-10-24T18:19:33.585Z,12.87
2022-10-24T18:22:00.517Z,13.00
2022-10-24T18:24:40.104Z,12.60
2022-10-24T18:27:28.968Z,13.03
2022-10-24T18:34:40.799Z,13.30
2022-10-24T18:40:43.273Z,12.77
2022-10-24T18:43:19.306Z,13.10
2022-10-24T18:45:48.345Z,12.97
2022-10-24T18:52:00.538Z,12.83
2022-10-24T18:54:48.423Z,13.30
2022-10-24T18:57:37.258Z,12.67
2022-10-24T19:40:55.706Z,14.23
2022-10-24T19:46:28.809Z,15.63
2022-10-24T19:49:20.086Z,14.80
2022-10-24T19:52:27.582Z,14.13
2022-10-24T19:54:57.591Z,14.67
2022-10-24T19:57:24.469Z,14.60
2022-10-24T20:00:19.694Z,14.60
2022-10-24T20:03:08.422Z,14.47
2022-10-24T20:14:56.014Z,14.33
2022-10-24T20:27:58.258Z,16.07
2022-10-24T20:30:31.350Z,14.77
2022-10-24T20:34:40.427Z,15.23
2022-10-24T20:37:01.373Z,15.70
2022-10-24T20:51:42.592Z,15.80
2022-10-24T21:31:28.835Z,13.40
2022-10-24T21:34:19.561Z,13.47
2022-10-24T21:39:39.893Z,13.17
2022-10-24T21:48:04.170Z,14.17
2022-10-24T22:18:04.455Z,11.63
2022-10-24T22:27:22.957Z,12.23
2022-10-24T22:30:10.625Z,12.13
2022-10-24T22:38:59.350Z,11.53
2022-10-24T22:41:46.146Z,11.10
2022-10-24T22:44:38.800Z,12.07
2022-10-24T22:51:00.883Z,12.23
2022-10-24T22:54:13.646Z,11.83
2022-10-24T22:56:44.564Z,12.20
2022-10-24T22:59:44.410Z,12.20
2022-10-24T23:06:50.391Z,10.60
2022-10-24T23:09:25.976Z,10.83
2022-10-24T23:11:53.260Z,10.90
2022-10-24T23:14:20.677Z,11.00
2022-10-24T23:16:58.991Z,10.20
2022-10-24T23:19:45.988Z,10.10
2022-10-24T23:22:34.457Z,10.33
2022-10-24T23:25:01.774Z,8.93
2022-10-24T23:27:36.473Z,9.57
2022-10-24T23:30:18.207Z,8.97
2022-10-24T23:32:46.169Z,8.73
2022-10-24T23:35:17.284Z,9.07
2022-10-24T23:37:52.582Z,9.07
2022-10-24T23:40:30.752Z,8.43
2022-10-24T23:42:58.267Z,8.10
2022-10-24T23:45:35.977Z,9.43
2022-10-24T23:48:18.593Z,8.77
2022-10-24T23:51:02.198Z,9.10
2022-10-24T23:53:55.005Z,8.70
2022-10-24T23:56:27.568Z,8.90
2022-10-24T23:58:55.319Z,8.80
